createdAt,value
2022-11-09T00:00:46.299Z,76439.38
2022-11-09T00:03:14.539Z,76437.28
2022-11-09T00:05:43.137Z,76441.50
2022-11-09T00:08:12.359Z,76435.16
2022-11-09T00:10:41.648Z,76435.16
2022-11-09T00:13:09.609Z,76443.63
2022-11-09T00:15:37.514Z,76439.38
2022-11-09T00:18:05.236Z,76435.16
2022-11-09T00:20:33.163Z,76445.75
2022-11-09T00:23:01.102Z,76441.50
2022-11-09T00:25:28.964Z,76447.84
2022-11-09T00:27:58.349Z,76445.75
2022-11-09T00:30:27.052Z,76447.84
2022-11-09T00:32:54.964Z,76456.31
2022-11-09T00:35:22.729Z,76456.31
2022-11-09T00:37:50.669Z,76456.31
2022-11-09T00:40:18.798Z,76452.09
2022-11-09T00:42:47.141Z,76456.31
2022-11-09T00:45:16.483Z,76460.56
2022-11-09T00:47:44.308Z,76469.03
2022-11-09T00:50:12.101Z,76469.03
2022-11-09T00:52:40.048Z,76475.38
2022-11-09T00:55:08.430Z,76475.38
2022-11-09T00:57:36.241Z,76473.25
2022-11-09T01:00:04.607Z,76473.25
2022-11-09T01:02:34.058Z,76473.25
2022-11-09T01:05:02.162Z,76477.50
2022-11-09T01:07:30.281Z,76488.06
2022-11-09T01:09:58.265Z,76485.97
2022-11-09T01:12:26.370Z,76488.06
2022-11-09T01:14:54.280Z,76485.97
2022-11-09T01:17:22.478Z,76483.84
2022-11-09T01:19:51.865Z,76490.19
2022-11-09T01:22:20.235Z,76490.19
2022-11-09T01:24:47.939Z,76498.66
2022-11-09T01:27:15.962Z,76492.31
2022-11-09T01:29:43.707Z,76492.31
2022-11-09T01:32:11.700Z,76498.66
2022-11-09T01:34:40.526Z,76494.44
2022-11-09T01:37:09.761Z,76505.00
2022-11-09T01:39:37.556Z,76502.88
2022-11-09T01:42:05.559Z,76494.44
2022-11-09T01:44:34.858Z,76496.53
2022-11-09T01:47:04.931Z,76498.66
2022-11-09T01:49:41.003Z,76500.78
2022-11-09T01:52:14.448Z,76492.31
2022-11-09T01:54:45.255Z,76498.66
2022-11-09T01:57:16.853Z,76492.31
2022-11-09T01:59:48.902Z,76492.31
2022-11-09T02:02:17.193Z,76488.06
2022-11-09T02:04:46.841Z,76490.19
2022-11-09T02:07:16.460Z,76490.19
2022-11-09T02:09:48.036Z,76490.19
2022-11-09T02:12:16.629Z,76490.19
2022-11-09T02:14:45.359Z,76490.19
2022-11-09T02:17:13.416Z,76498.66
2022-11-09T02:19:41.168Z,76500.78
2022-11-09T02:22:10.519Z,76507.13
2022-11-09T02:24:38.377Z,76507.13
2022-11-09T02:27:07.179Z,76521.94
2022-11-09T02:29:36.932Z,76517.72
2022-11-09T02:32:08.559Z,76521.94
2022-11-09T02:34:36.311Z,76528.28
2022-11-09T02:37:04.242Z,76524.06
2022-11-09T02:39:33.456Z,76528.28
2022-11-09T02:42:05.068Z,76532.53
2022-11-09T02:44:37.174Z,76528.28
2022-11-09T02:47:05.360Z,76530.41
2022-11-09T02:49:33.187Z,76528.28
2022-11-09T02:52:01.121Z,76528.28
2022-11-09T02:54:28.881Z,76530.41
2022-11-09T02:56:58.278Z,76530.41
2022-11-09T02:59:26.355Z,76538.88
2022-11-09T03:01:54.325Z,76528.28
2022-11-09T03:04:22.082Z,76532.53
2022-11-09T03:06:50.000Z,76541.00
2022-11-09T03:09:18.336Z,76545.22
2022-11-09T03:11:46.391Z,76547.34
2022-11-09T03:14:15.740Z,76549.47
2022-11-09T03:16:49.167Z,76557.94
2022-11-09T03:19:18.141Z,76557.94
2022-11-09T03:21:46.490Z,76557.94
2022-11-09T03:24:14.252Z,76564.28
2022-11-09T03:26:42.092Z,76555.81
2022-11-09T03:29:09.810Z,76557.94
2022-11-09T03:31:39.947Z,76560.03
2022-11-09T03:34:07.825Z,76553.69
2022-11-09T03:36:36.054Z,76562.16
2022-11-09T03:39:04.088Z,76549.47
2022-11-09T03:41:31.931Z,76553.69
2022-11-09T03:43:59.949Z,76553.69
2022-11-09T03:46:27.888Z,76549.47
2022-11-09T03:48:57.391Z,76549.47
2022-11-09T03:51:25.265Z,76555.81
2022-11-09T03:53:53.266Z,76564.28
2022-11-09T03:56:21.117Z,76562.16
2022-11-09T03:58:48.943Z,76566.41
2022-11-09T04:01:17.066Z,76557.94
2022-11-09T04:03:44.969Z,76566.41
2022-11-09T04:06:14.153Z,76570.63
2022-11-09T04:08:44.668Z,76574.88
2022-11-09T04:11:15.375Z,76568.50
2022-11-09T04:13:43.442Z,76564.28
2022-11-09T04:16:11.405Z,76570.63
2022-11-09T04:18:39.236Z,76566.41
2022-11-09T04:21:07.058Z,76568.50
2022-11-09T04:23:36.251Z,76564.28
2022-11-09T04:26:04.065Z,76562.16
2022-11-09T04:28:31.807Z,76553.69
2022-11-09T04:31:02.172Z,76560.03
2022-11-09T04:33:30.103Z,76553.69
2022-11-09T04:36:03.613Z,76549.47
2022-11-09T04:38:31.900Z,76557.94
2022-11-09T04:41:03.003Z,76551.56
2022-11-09T04:43:30.765Z,76549.47
2022-11-09T04:46:01.144Z,76545.22
2022-11-09T04:48:29.442Z,76547.34
2022-11-09T04:51:01.726Z,76543.09
2022-11-09T04:53:29.714Z,76545.22
2022-11-09T04:55:57.981Z,76545.22
2022-11-09T04:58:27.776Z,76549.47
2022-11-09T05:00:55.773Z,76549.47
2022-11-09T05:03:23.631Z,76549.47
2022-11-09T05:05:51.443Z,76547.34
2022-11-09T05:08:19.094Z,76549.47
2022-11-09T05:10:46.913Z,76549.47
2022-11-09T05:13:15.086Z,76536.75
2022-11-09T05:15:44.222Z,76543.09
2022-11-09T05:18:11.892Z,76536.75
2022-11-09T05:20:39.596Z,76534.66
2022-11-09T05:23:24.884Z,76528.28
2022-11-09T05:25:52.583Z,76534.66
2022-11-09T05:28:20.447Z,76536.75
2022-11-09T05:30:49.559Z,76541.00
2022-11-09T05:33:18.173Z,76545.22
2022-11-09T05:35:46.176Z,76547.34
2022-11-09T05:38:13.857Z,76549.47
2022-11-09T05:40:41.969Z,76557.94
2022-11-09T05:43:09.776Z,76570.63
2022-11-09T05:45:44.759Z,76587.56
2022-11-09T05:48:15.009Z,76589.69
2022-11-09T05:50:43.404Z,76598.16
2022-11-09T05:53:12.223Z,76604.50
2022-11-09T05:55:40.115Z,76612.97
2022-11-09T05:58:08.386Z,76602.38
2022-11-09T06:00:36.273Z,76600.25
2022-11-09T06:03:04.591Z,76591.78
2022-11-09T06:05:34.994Z,76598.16
2022-11-09T06:08:06.711Z,76600.25
2022-11-09T06:10:34.631Z,76604.50
2022-11-09T06:13:03.195Z,76600.25
2022-11-09T06:15:31.070Z,76596.03
2022-11-09T06:17:59.649Z,76583.34
2022-11-09T06:20:28.410Z,76579.09
2022-11-09T06:23:03.116Z,76566.41
2022-11-09T06:25:33.134Z,76551.56
2022-11-09T06:28:01.458Z,76543.09
2022-11-09T06:30:30.374Z,76538.88
2022-11-09T06:33:01.301Z,76515.59
2022-11-09T06:35:29.356Z,76507.13
2022-11-09T06:37:59.663Z,76507.13
2022-11-09T06:40:27.506Z,76509.25
2022-11-09T06:42:59.143Z,76505.00
2022-11-09T06:45:27.793Z,76483.84
2022-11-09T06:47:56.947Z,76488.06
2022-11-09T06:50:24.859Z,76481.72
2022-11-09T06:52:57.374Z,76456.31
2022-11-09T06:55:26.506Z,76452.09
2022-11-09T06:57:54.481Z,76447.84
2022-11-09T07:00:23.452Z,76454.22
2022-11-09T07:02:51.423Z,76424.56
2022-11-09T07:05:19.424Z,76418.22
2022-11-09T07:07:47.835Z,76392.81
2022-11-09T07:10:16.556Z,76375.88
2022-11-09T07:12:45.879Z,76327.19
2022-11-09T07:15:14.946Z,76316.63
2022-11-09T07:17:43.000Z,76310.28
2022-11-09T07:20:13.500Z,76314.50
2022-11-09T07:22:42.045Z,76337.78
2022-11-09T07:25:11.184Z,76344.13
2022-11-09T07:27:39.046Z,76358.94
2022-11-09T07:30:09.351Z,76350.50
2022-11-09T07:33:07.401Z,76350.50
2022-11-09T07:35:25.872Z,76331.44
2022-11-09T07:37:53.871Z,76346.25
2022-11-09T07:40:21.679Z,76337.78
2022-11-09T07:42:49.373Z,76339.91
2022-11-09T07:45:18.939Z,76342.03
2022-11-09T07:47:46.748Z,76337.78
2022-11-09T07:50:14.570Z,76327.19
2022-11-09T07:52:42.562Z,76322.97
2022-11-09T07:55:10.647Z,76299.69
2022-11-09T07:57:38.719Z,76312.38
2022-11-09T08:00:09.835Z,76299.69
2022-11-09T08:02:38.953Z,76280.63
2022-11-09T08:05:07.507Z,76251.00
2022-11-09T08:07:35.318Z,76240.41
2022-11-09T08:10:03.476Z,76202.31
2022-11-09T08:12:36.702Z,76179.03
2022-11-09T08:15:07.780Z,76160.00
2022-11-09T08:17:35.802Z,76147.28
2022-11-09T08:20:05.437Z,76104.97
2022-11-09T08:22:33.312Z,76113.44
2022-11-09T08:25:01.116Z,76066.88
2022-11-09T08:27:31.519Z,76039.34
2022-11-09T08:29:59.434Z,76047.81
2022-11-09T08:32:27.100Z,76024.53
2022-11-09T08:34:54.797Z,76020.31
2022-11-09T08:37:24.336Z,75990.66
2022-11-09T08:39:54.484Z,75965.28
2022-11-09T08:42:28.965Z,75971.63
2022-11-09T08:44:56.809Z,75969.50
2022-11-09T08:47:24.502Z,75982.19
2022-11-09T08:49:52.139Z,76001.25
2022-11-09T08:52:20.085Z,75984.31
2022-11-09T08:54:49.145Z,75969.50
2022-11-09T08:57:23.836Z,75984.31
2022-11-09T08:59:51.883Z,75988.56
2022-11-09T09:02:20.796Z,76005.47
2022-11-09T09:04:48.728Z,76013.94
2022-11-09T09:07:16.539Z,76018.19
2022-11-09T09:09:44.976Z,76007.59
2022-11-09T09:12:15.756Z,76001.25
2022-11-09T09:14:43.444Z,76005.47
2022-11-09T09:17:11.502Z,76011.84
2022-11-09T09:19:39.191Z,75994.91
2022-11-09T09:22:06.942Z,75986.44
2022-11-09T09:24:35.266Z,75986.44
2022-11-09T09:27:03.756Z,75980.09
2022-11-09T09:29:32.793Z,75944.09
2022-11-09T09:32:00.466Z,75906.00
2022-11-09T09:34:28.629Z,75895.44
2022-11-09T09:36:56.627Z,75857.34
2022-11-09T09:39:24.759Z,75855.22
2022-11-09T09:41:53.973Z,75863.69
2022-11-09T09:44:26.552Z,75861.56
2022-11-09T09:47:02.625Z,75859.44
2022-11-09T09:49:32.418Z,75831.94
2022-11-09T09:52:04.683Z,75795.97
2022-11-09T09:54:35.207Z,75789.59
2022-11-09T09:57:03.988Z,75764.22
2022-11-09T09:59:36.750Z,75766.31
2022-11-09T10:02:09.178Z,75757.88
2022-11-09T10:04:39.583Z,75749.41
2022-11-09T10:07:12.522Z,75740.94
2022-11-09T10:09:53.675Z,75766.31
2022-11-09T10:12:37.282Z,75757.88
2022-11-09T10:15:14.130Z,75736.69
2022-11-09T10:17:50.125Z,75740.94
2022-11-09T10:20:29.365Z,75713.41
2022-11-09T10:23:07.986Z,75694.38
2022-11-09T10:28:47.627Z,75698.59
2022-11-09T10:31:22.135Z,75666.84
2022-11-09T10:33:55.263Z,75666.84
2022-11-09T10:36:26.710Z,75668.97
2022-11-09T10:38:56.718Z,75656.28
2022-11-09T10:41:32.789Z,75639.34
2022-11-09T10:44:01.127Z,75630.88
2022-11-09T10:46:29.083Z,75641.47
2022-11-09T10:48:58.118Z,75633.00
2022-11-09T10:51:34.894Z,75626.66
2022-11-09T10:54:16.336Z,75613.94
2022-11-09T10:59:42.979Z,75652.03
2022-11-09T11:02:38.963Z,75643.56
2022-11-09T11:05:28.327Z,75647.81
2022-11-09T11:07:55.994Z,75675.31
2022-11-09T11:10:24.342Z,75681.66
2022-11-09T11:13:23.368Z,75690.13
2022-11-09T11:15:51.794Z,75681.66
2022-11-09T11:18:25.079Z,75658.41
2022-11-09T11:21:18.742Z,75597.03
2022-11-09T11:24:05.346Z,75597.03
2022-11-09T11:26:37.835Z,75590.69
2022-11-09T11:29:10.213Z,75580.09
2022-11-09T11:31:39.512Z,75613.94
2022-11-09T11:34:10.482Z,75590.69
2022-11-09T11:36:49.474Z,75580.09
2022-11-09T11:39:32.712Z,75575.84
2022-11-09T11:42:24.162Z,75510.25
2022-11-09T11:45:33.398Z,75525.06
2022-11-09T11:47:59.943Z,75493.31
2022-11-09T11:50:34.040Z,75544.13
2022-11-09T11:53:24.195Z,75478.50
2022-11-09T11:56:06.742Z,75554.69
2022-11-09T11:58:48.756Z,75601.25
2022-11-09T12:01:30.175Z,75616.06
2022-11-09T12:04:05.011Z,75645.69
2022-11-09T12:07:01.918Z,75637.22
2022-11-09T12:09:45.252Z,75495.44
2022-11-09T12:12:20.504Z,75360.00
2022-11-09T12:14:58.637Z,75393.88
2022-11-09T12:17:31.537Z,75453.13
2022-11-09T12:20:16.584Z,75438.31
2022-11-09T12:22:55.771Z,75474.28
2022-11-09T12:25:29.541Z,75406.56
2022-11-09T12:28:13.824Z,75470.03
2022-11-09T12:30:53.740Z,75491.22
2022-11-09T12:33:33.311Z,75544.13
2022-11-09T12:36:05.521Z,75563.16
2022-11-09T12:38:36.670Z,75520.84
2022-11-09T12:41:11.319Z,75501.78
2022-11-09T12:43:46.469Z,75484.88
2022-11-09T12:46:14.770Z,75444.66
2022-11-09T12:48:42.466Z,75448.88
2022-11-09T12:51:12.923Z,75491.22
2022-11-09T12:53:41.265Z,75514.50
2022-11-09T12:56:18.965Z,75531.41
2022-11-09T12:58:47.502Z,75516.59
2022-11-09T13:01:45.799Z,75499.66
2022-11-09T13:04:18.668Z,75499.66
2022-11-09T13:07:34.224Z,75499.66
2022-11-09T13:10:04.035Z,75484.88
2022-11-09T13:12:39.706Z,75491.22
2022-11-09T13:15:23.198Z,75470.03
2022-11-09T13:18:03.679Z,75503.91
2022-11-09T13:20:56.800Z,75516.59
2022-11-09T13:23:48.124Z,75518.72
2022-11-09T13:26:26.535Z,75537.75
2022-11-09T13:29:26.872Z,75542.00
2022-11-09T13:32:34.024Z,75571.63
2022-11-09T13:35:08.738Z,75571.63
2022-11-09T13:38:14.426Z,75571.63
2022-11-09T13:40:48.662Z,75590.69
2022-11-09T13:43:19.542Z,75594.91
2022-11-09T13:45:51.000Z,75624.53
2022-11-09T13:48:39.283Z,75643.56
2022-11-09T13:51:08.324Z,75654.16
2022-11-09T13:53:58.068Z,75660.50
2022-11-09T13:56:35.147Z,75671.09
2022-11-09T13:59:18.822Z,75660.50
2022-11-09T14:01:50.055Z,75668.97
2022-11-09T14:04:26.638Z,75681.66
2022-11-09T14:07:01.987Z,75694.38
2022-11-09T14:09:38.318Z,75702.84
2022-11-09T14:12:41.262Z,75709.19
2022-11-09T14:19:00.437Z,75715.53
2022-11-09T14:21:40.432Z,75724.00
2022-11-09T14:24:18.490Z,75736.69
2022-11-09T14:27:18.358Z,75749.41
2022-11-09T14:29:54.349Z,75766.31
2022-11-09T14:32:29.411Z,75770.56
2022-11-09T14:35:24.190Z,75787.50
2022-11-09T14:37:53.304Z,75787.50
2022-11-09T14:40:25.636Z,75804.41
2022-11-09T14:42:55.995Z,75812.88
2022-11-09T14:45:25.490Z,75817.13
2022-11-09T14:47:55.700Z,75821.34
2022-11-09T14:50:27.516Z,75825.59
2022-11-09T14:52:56.351Z,75842.53
2022-11-09T14:55:25.778Z,75853.09
2022-11-09T14:57:55.176Z,75863.69
2022-11-09T15:00:27.885Z,75876.38
2022-11-09T15:02:57.784Z,75878.50
2022-11-09T15:05:33.989Z,75880.63
2022-11-09T15:08:03.181Z,75886.97
2022-11-09T15:10:32.634Z,75895.44
2022-11-09T15:13:03.251Z,75910.25
2022-11-09T15:15:32.741Z,75910.25
2022-11-09T15:18:01.167Z,75922.94
2022-11-09T15:20:33.501Z,75935.63
2022-11-09T15:23:04.609Z,75944.09
2022-11-09T15:25:35.168Z,75963.16
2022-11-09T15:28:21.025Z,75967.38
2022-11-09T15:31:07.588Z,75967.38
2022-11-09T15:33:47.996Z,75973.75
2022-11-09T15:36:27.180Z,75973.75
2022-11-09T15:39:00.920Z,75984.31
2022-11-09T15:41:29.648Z,75988.56
2022-11-09T15:43:58.168Z,75986.44
2022-11-09T15:46:28.426Z,75988.56
2022-11-09T15:48:57.754Z,75997.03
2022-11-09T15:51:27.210Z,76003.38
2022-11-09T15:53:54.924Z,76003.38
2022-11-09T15:56:24.505Z,76003.38
2022-11-09T15:58:53.491Z,75994.91
2022-11-09T16:01:22.550Z,76005.47
2022-11-09T16:03:50.327Z,76007.59
2022-11-09T16:06:19.504Z,76007.59
2022-11-09T16:08:50.048Z,76011.84
2022-11-09T16:11:17.930Z,76024.53
2022-11-09T16:13:47.571Z,76020.31
2022-11-09T16:16:15.984Z,76033.00
2022-11-09T16:18:45.671Z,76039.34
2022-11-09T16:21:15.203Z,76047.81
2022-11-09T16:23:43.119Z,76045.69
2022-11-09T16:26:14.706Z,76054.16
2022-11-09T16:28:43.429Z,76054.16
2022-11-09T16:31:12.557Z,76064.75
2022-11-09T16:33:41.094Z,76071.09
2022-11-09T16:36:12.086Z,76075.31
2022-11-09T16:38:42.499Z,76075.31
2022-11-09T16:41:11.981Z,76081.69
2022-11-09T16:43:40.135Z,76083.78
2022-11-09T16:46:09.716Z,76090.16
2022-11-09T16:48:37.474Z,76100.72
2022-11-09T16:51:05.675Z,76098.59
2022-11-09T16:53:37.641Z,76107.06
2022-11-09T16:56:06.060Z,76109.19
2022-11-09T16:58:35.113Z,76104.97
2022-11-09T17:01:12.746Z,76115.53
2022-11-09T17:03:42.180Z,76126.13
2022-11-09T17:06:11.290Z,76132.47
2022-11-09T17:08:39.474Z,76126.13
2022-11-09T17:11:08.834Z,76143.06
2022-11-09T17:13:38.383Z,76138.81
2022-11-09T17:16:07.923Z,76138.81
2022-11-09T17:18:37.852Z,76138.81
2022-11-09T17:21:10.563Z,76140.94
2022-11-09T17:23:38.689Z,76147.28
2022-11-09T17:26:11.125Z,76151.53
2022-11-09T17:28:43.189Z,76153.63
2022-11-09T17:31:12.146Z,76160.00
2022-11-09T17:33:40.294Z,76153.63
2022-11-09T17:36:11.374Z,76153.63
2022-11-09T17:38:39.411Z,76160.00
2022-11-09T17:41:08.758Z,76164.22
2022-11-09T17:43:39.996Z,76164.22
2022-11-09T17:46:10.774Z,76172.69
2022-11-09T17:48:40.504Z,76181.16
2022-11-09T17:51:09.305Z,76172.69
2022-11-09T17:53:37.627Z,76172.69
2022-11-09T17:56:08.523Z,76172.69
2022-11-09T17:58:41.521Z,76164.22
2022-11-09T18:01:14.113Z,76170.56
2022-11-09T18:03:42.803Z,76168.47
2022-11-09T18:06:12.518Z,76181.16
2022-11-09T18:08:40.521Z,76179.03
2022-11-09T18:11:09.028Z,76185.38
2022-11-09T18:13:37.105Z,76181.16
2022-11-09T18:16:16.168Z,76176.94
2022-11-09T18:18:46.756Z,76185.38
2022-11-09T18:21:19.839Z,76193.84
2022-11-09T18:23:47.788Z,76193.84
2022-11-09T18:26:15.506Z,76189.63
2022-11-09T18:28:44.008Z,76202.31
2022-11-09T18:31:13.766Z,76200.22
2022-11-09T18:33:43.007Z,76206.56
2022-11-09T18:36:16.458Z,76215.03
2022-11-09T18:38:45.537Z,76221.38
2022-11-09T18:41:14.843Z,76217.13
2022-11-09T18:43:43.743Z,76221.38
2022-11-09T18:46:12.935Z,76219.25
2022-11-09T18:48:41.095Z,76223.50
2022-11-09T18:51:12.757Z,76229.84
2022-11-09T18:53:43.011Z,76227.72
2022-11-09T18:56:18.866Z,76229.84
2022-11-09T18:58:46.973Z,76229.84
2022-11-09T19:01:15.978Z,76234.06
2022-11-09T19:03:45.817Z,76234.06
2022-11-09T19:06:14.992Z,76244.66
2022-11-09T19:09:02.134Z,76248.88
2022-11-09T19:11:30.179Z,76251.00
2022-11-09T19:13:58.682Z,76253.13
2022-11-09T19:16:28.642Z,76257.34
2022-11-09T19:18:56.672Z,76255.25
2022-11-09T19:21:38.290Z,76257.34
2022-11-09T19:24:11.745Z,76259.47
2022-11-09T19:26:40.860Z,76263.72
2022-11-09T19:29:12.531Z,76261.59
2022-11-09T19:31:43.653Z,76261.59
2022-11-09T19:34:12.256Z,76259.47
2022-11-09T19:36:41.535Z,76257.34
2022-11-09T19:39:11.762Z,76257.34
2022-11-09T19:41:40.337Z,76251.00
2022-11-09T19:44:08.695Z,76255.25
2022-11-09T19:46:43.278Z,76248.88
2022-11-09T19:49:27.791Z,76240.41
2022-11-09T19:51:58.243Z,76240.41
2022-11-09T19:54:27.208Z,76240.41
2022-11-09T19:56:55.672Z,76240.41
2022-11-09T19:59:24.275Z,76236.19
2022-11-09T20:01:52.867Z,76244.66
2022-11-09T20:04:22.812Z,76244.66
2022-11-09T20:06:50.552Z,76244.66
2022-11-09T20:09:18.658Z,76244.66
2022-11-09T20:12:07.225Z,76240.41
2022-11-09T20:14:34.871Z,76246.78
2022-11-09T20:17:07.276Z,76242.53
2022-11-09T20:19:36.519Z,76244.66
2022-11-09T20:22:05.173Z,76253.13
2022-11-09T20:24:32.961Z,76257.34
2022-11-09T20:27:02.060Z,76278.53
2022-11-09T20:29:30.546Z,76282.75
2022-11-09T20:31:58.288Z,76282.75
2022-11-09T20:34:26.533Z,76287.00
2022-11-09T20:36:54.352Z,76295.47
2022-11-09T20:39:22.691Z,76303.91
2022-11-09T20:41:52.081Z,76303.91
2022-11-09T20:44:21.124Z,76299.69
2022-11-09T20:47:03.889Z,76299.69
2022-11-09T20:49:31.798Z,76287.00
2022-11-09T20:52:00.017Z,76289.09
2022-11-09T20:54:27.692Z,76295.47
2022-11-09T20:56:55.939Z,76303.91
2022-11-09T20:59:25.918Z,76306.03
2022-11-09T21:01:54.235Z,76306.03
2022-11-09T21:04:25.038Z,76312.38
2022-11-09T21:06:55.071Z,76325.09
2022-11-09T21:09:24.202Z,76314.50
2022-11-09T21:12:09.892Z,76308.16
2022-11-09T21:14:39.391Z,76306.03
2022-11-09T21:17:07.650Z,76295.47
2022-11-09T21:19:35.772Z,76299.69
2022-11-09T21:22:06.146Z,76306.03
2022-11-09T21:24:51.824Z,76303.91
2022-11-09T21:27:43.110Z,76320.84
2022-11-09T21:30:14.631Z,76329.31
2022-11-09T21:32:42.847Z,76337.78
2022-11-09T21:35:11.709Z,76350.50
2022-11-09T21:37:39.336Z,76350.50
2022-11-09T21:40:13.474Z,76358.94
2022-11-09T21:42:41.442Z,76363.19
2022-11-09T21:45:09.976Z,76361.06
2022-11-09T21:47:39.039Z,76354.72
2022-11-09T21:50:12.559Z,76350.50
2022-11-09T21:52:41.871Z,76356.84
2022-11-09T21:55:09.990Z,76350.50
2022-11-09T21:57:37.839Z,76346.25
2022-11-09T22:00:09.841Z,76346.25
2022-11-09T22:02:39.783Z,76337.78
2022-11-09T22:05:27.474Z,76339.91
2022-11-09T22:07:55.646Z,76335.66
2022-11-09T22:10:24.110Z,76331.44
2022-11-09T22:13:09.801Z,76331.44
2022-11-09T22:15:55.140Z,76329.31
2022-11-09T22:18:45.873Z,76335.66
2022-11-09T22:21:16.320Z,76329.31
2022-11-09T22:23:44.057Z,76327.19
2022-11-09T22:26:11.720Z,76342.03
2022-11-09T22:28:39.372Z,76363.19
2022-11-09T22:31:08.490Z,76371.66
2022-11-09T22:33:37.627Z,76373.78
2022-11-09T22:36:06.825Z,76375.88
2022-11-09T22:38:34.947Z,76378.00
2022-11-09T22:41:03.243Z,76378.00
2022-11-09T22:43:33.595Z,76371.66
2022-11-09T22:46:04.278Z,76369.53
2022-11-09T22:48:32.422Z,76365.31
2022-11-09T22:51:01.875Z,76354.72
2022-11-09T22:53:29.943Z,76361.06
2022-11-09T22:55:58.809Z,76356.84
2022-11-09T22:58:27.407Z,76363.19
2022-11-09T23:00:55.559Z,76367.41
2022-11-09T23:03:23.624Z,76365.31
2022-11-09T23:05:51.743Z,76367.41
2022-11-09T23:08:21.328Z,76367.41
2022-11-09T23:10:55.262Z,76380.13
2022-11-09T23:13:23.281Z,76388.59
2022-11-09T23:15:55.638Z,76392.81
2022-11-09T23:18:40.666Z,76394.94
2022-11-09T23:21:12.759Z,76384.34
2022-11-09T23:23:41.776Z,76392.81
2022-11-09T23:26:10.002Z,76380.13
2022-11-09T23:28:37.923Z,76378.00
2022-11-09T23:31:06.912Z,76380.13
2022-11-09T23:33:34.926Z,76375.88
2022-11-09T23:36:03.871Z,76375.88
2022-11-09T23:38:33.589Z,76375.88
2022-11-09T23:41:03.943Z,76371.66
2022-11-09T23:43:31.835Z,76373.78
2022-11-09T23:46:02.178Z,76375.88
2022-11-09T23:48:30.231Z,76380.13
2022-11-09T23:50:59.738Z,76371.66
2022-11-09T23:53:28.250Z,76373.78
2022-11-09T23:55:56.192Z,76363.19
2022-11-09T23:58:25.965Z,76367.41
